createdAt,value
2017-08-20T00:00:59.383Z,67.50
2017-08-20T00:03:27.563Z,66.80
2017-08-20T00:05:55.727Z,67.40
2017-08-20T00:08:23.903Z,67.10
2017-08-20T00:10:52.382Z,66.90
2017-08-20T00:13:21.280Z,67.90
2017-08-20T00:15:49.872Z,67.70
2017-08-20T00:18:18.035Z,67.70
2017-08-20T00:20:46.207Z,68.20
2017-08-20T00:23:14.287Z,67.90
2017-08-20T00:25:42.451Z,68.40
2017-08-20T00:28:10.630Z,68.80
2017-08-20T00:30:38.703Z,69.10
2017-08-20T00:33:06.889Z,69.50
2017-08-20T00:35:35.055Z,70.00
2017-08-20T00:38:03.236Z,69.80
2017-08-20T00:40:32.840Z,70.70
2017-08-20T00:43:01.022Z,70.20
2017-08-20T00:45:29.179Z,70.10
2017-08-20T00:47:57.351Z,70.20
2017-08-20T00:50:25.863Z,70.20
2017-08-20T00:52:54.711Z,70.40
2017-08-20T00:55:22.804Z,70.90
2017-08-20T00:57:50.971Z,71.30
2017-08-20T01:00:19.076Z,72.00
2017-08-20T01:02:47.939Z,72.20
2017-08-20T01:05:16.120Z,72.10
2017-08-20T01:07:44.211Z,72.60
2017-08-20T01:10:13.070Z,73.70
2017-08-20T01:12:41.251Z,73.00
2017-08-20T01:15:10.149Z,72.50
2017-08-20T01:17:38.306Z,72.30
2017-08-20T01:20:06.796Z,72.80
2017-08-20T01:22:34.962Z,73.30
2017-08-20T01:25:03.142Z,72.80
2017-08-20T01:27:31.318Z,72.80
2017-08-20T01:29:59.486Z,73.30
2017-08-20T01:32:27.671Z,73.30
2017-08-20T01:34:55.772Z,73.10
2017-08-20T01:37:24.627Z,74.50
2017-08-20T01:39:52.798Z,74.20
2017-08-20T01:42:20.970Z,75.00
2017-08-20T01:44:49.851Z,75.90
2017-08-20T01:47:17.936Z,75.10
2017-08-20T01:49:47.443Z,75.60
2017-08-20T01:52:15.518Z,76.30
2017-08-20T01:54:44.394Z,76.30
2017-08-20T01:57:12.581Z,76.20
2017-08-20T01:59:40.754Z,76.30
2017-08-20T02:02:08.926Z,76.40
2017-08-20T02:04:37.602Z,76.80
2017-08-20T02:07:06.502Z,77.50
2017-08-20T02:09:34.678Z,77.30
2017-08-20T02:12:02.786Z,77.80
2017-08-20T02:14:31.732Z,77.40
2017-08-20T02:17:00.634Z,78.00
2017-08-20T02:19:28.810Z,77.10
2017-08-20T02:21:57.074Z,77.80
2017-08-20T02:24:25.570Z,77.30
2017-08-20T02:26:53.741Z,77.60
2017-08-20T02:29:21.914Z,78.10
2017-08-20T02:31:50.014Z,77.60
2017-08-20T02:34:18.162Z,78.00
2017-08-20T02:36:46.334Z,78.30
2017-08-20T02:39:15.434Z,78.30
2017-08-20T02:41:43.606Z,79.40
2017-08-20T02:44:11.782Z,78.20
2017-08-20T02:46:40.678Z,77.90
2017-08-20T02:49:08.754Z,77.90
2017-08-20T02:51:36.917Z,77.90
2017-08-20T02:54:05.810Z,78.30
2017-08-20T02:56:33.887Z,78.70
2017-08-20T02:59:02.054Z,79.00
2017-08-20T03:01:30.949Z,79.60
2017-08-20T03:03:59.122Z,79.70
2017-08-20T03:06:27.298Z,79.20
2017-08-20T03:08:55.474Z,79.60
2017-08-20T03:11:23.643Z,79.30
2017-08-20T03:13:51.713Z,79.60
2017-08-20T03:16:19.890Z,80.20
2017-08-20T03:18:48.790Z,80.80
2017-08-20T03:21:18.402Z,81.40
2017-08-20T03:23:46.562Z,80.40
2017-08-20T03:26:14.738Z,80.20
2017-08-20T03:28:42.914Z,80.30
2017-08-20T03:31:11.087Z,80.00
2017-08-20T03:33:40.068Z,80.00
2017-08-20T03:36:08.974Z,81.30
2017-08-20T03:38:37.142Z,80.40
2017-08-20T03:41:05.630Z,79.80
2017-08-20T03:43:33.802Z,79.60
2017-08-20T03:46:02.694Z,79.90
2017-08-20T03:48:30.874Z,80.00
2017-08-20T03:50:58.977Z,80.50
2017-08-20T03:53:27.822Z,80.70
2017-08-20T03:55:56.719Z,80.50
2017-08-20T03:58:24.902Z,80.60
2017-08-20T04:00:53.070Z,80.90
2017-08-20T04:03:21.242Z,80.80
2017-08-20T04:05:49.318Z,80.90
2017-08-20T04:08:17.490Z,81.50
2017-08-20T04:10:45.666Z,80.00
2017-08-20T04:13:13.838Z,80.30
2017-08-20T04:15:42.014Z,80.20
2017-08-20T04:18:10.902Z,80.10
2017-08-20T04:20:39.074Z,80.20
2017-08-20T04:23:07.253Z,80.30
2017-08-20T04:25:35.426Z,79.50
2017-08-20T04:28:03.505Z,80.10
2017-08-20T04:30:31.670Z,79.70
2017-08-20T04:32:59.846Z,79.20
2017-08-20T04:35:27.927Z,79.60
2017-08-20T04:37:56.094Z,80.10
2017-08-20T04:40:24.270Z,79.00
2017-08-20T04:42:52.346Z,78.60
2017-08-20T04:45:20.839Z,79.20
2017-08-20T04:47:48.910Z,79.20
2017-08-20T04:50:17.008Z,79.20
2017-08-20T04:52:45.863Z,79.90
2017-08-20T04:55:13.938Z,79.10
2017-08-20T04:57:42.041Z,79.00
2017-08-20T05:00:10.502Z,77.60
2017-08-20T05:02:38.594Z,77.80
2017-08-20T05:05:07.454Z,78.00
2017-08-20T05:07:35.523Z,77.40
2017-08-20T05:10:03.626Z,77.40
2017-08-20T05:12:32.462Z,76.60
2017-08-20T05:15:01.298Z,75.90
2017-08-20T05:17:30.170Z,75.70
2017-08-20T05:19:58.243Z,75.70
2017-08-20T05:22:26.313Z,75.10
2017-08-20T05:24:55.999Z,75.00
2017-08-20T05:27:24.802Z,75.30
2017-08-20T05:29:52.874Z,73.30
2017-08-20T05:32:20.971Z,73.80
2017-08-20T05:34:49.438Z,70.60
2017-08-20T05:37:17.535Z,71.20
2017-08-20T05:39:46.394Z,70.60
2017-08-20T05:42:14.490Z,70.90
2017-08-20T05:44:43.331Z,71.10
2017-08-20T05:47:11.426Z,71.10
2017-08-20T05:49:39.502Z,71.60
2017-08-20T05:52:07.602Z,72.50
2017-08-20T05:54:36.446Z,71.90
2017-08-20T05:57:04.526Z,72.80
2017-08-20T05:59:32.598Z,72.70
2017-08-20T06:02:00.735Z,73.00
2017-08-20T06:04:28.834Z,73.30
2017-08-20T06:06:56.879Z,72.30
2017-08-20T06:09:25.738Z,71.30
2017-08-20T06:11:54.583Z,72.10
2017-08-20T06:14:22.700Z,71.50
2017-08-20T06:16:50.766Z,70.10
2017-08-20T06:19:18.838Z,69.10
2017-08-20T06:21:46.950Z,69.70
2017-08-20T06:24:15.790Z,69.90
2017-08-20T06:26:43.862Z,70.50
2017-08-20T06:29:11.958Z,67.50
2017-08-20T06:31:40.818Z,68.10
2017-08-20T06:34:08.890Z,67.80
2017-08-20T06:36:36.986Z,68.30
2017-08-20T06:39:05.846Z,66.90
2017-08-20T06:41:33.950Z,66.70
2017-08-20T06:44:02.023Z,66.20
2017-08-20T06:46:30.097Z,67.00
2017-08-20T06:48:58.954Z,67.60
2017-08-20T06:51:27.052Z,67.10
2017-08-20T06:53:55.518Z,67.00
2017-08-20T06:56:23.614Z,65.50
2017-08-20T06:58:52.603Z,66.10
2017-08-20T07:01:20.746Z,64.80
2017-08-20T07:03:48.922Z,62.00
2017-08-20T07:06:17.094Z,62.50
2017-08-20T07:08:45.174Z,63.30
2017-08-20T07:11:13.254Z,60.70
2017-08-20T07:13:42.953Z,60.60
2017-08-20T07:16:11.126Z,60.70
2017-08-20T07:18:40.834Z,57.70
2017-08-20T07:21:08.906Z,55.70
2017-08-20T07:23:37.082Z,59.20
2017-08-20T07:26:05.994Z,54.60
2017-08-20T07:28:34.070Z,54.40
2017-08-20T07:31:02.563Z,54.70
2017-08-20T07:33:31.414Z,53.70
2017-08-20T07:36:00.278Z,50.90
2017-08-20T07:38:28.350Z,52.20
2017-08-20T07:40:56.550Z,50.70
2017-08-20T07:43:24.726Z,51.10
2017-08-20T07:45:52.906Z,50.40
2017-08-20T07:48:20.986Z,49.90
2017-08-20T07:50:49.082Z,49.00
2017-08-20T07:53:17.925Z,49.00
2017-08-20T07:55:46.042Z,49.60
2017-08-20T07:58:14.902Z,48.30
2017-08-20T08:00:43.073Z,47.50
2017-08-20T08:03:11.170Z,48.30
2017-08-20T08:05:39.326Z,48.50
2017-08-20T08:08:07.497Z,45.40
2017-08-20T08:10:35.666Z,44.30
2017-08-20T08:13:03.842Z,45.00
2017-08-20T08:15:32.313Z,44.90
2017-08-20T08:18:00.498Z,44.90
2017-08-20T08:20:28.674Z,43.60
2017-08-20T08:22:56.846Z,44.00
2017-08-20T08:25:25.022Z,45.70
2017-08-20T08:27:53.915Z,44.60
2017-08-20T08:30:22.494Z,43.40
2017-08-20T08:32:50.732Z,42.90
2017-08-20T08:35:19.662Z,44.30
2017-08-20T08:37:48.246Z,42.40
2017-08-20T08:40:16.830Z,41.70
2017-08-20T08:42:45.011Z,42.90
2017-08-20T08:45:13.117Z,41.50
2017-08-20T08:47:42.074Z,42.00
2017-08-20T08:50:10.553Z,41.70
2017-08-20T08:52:39.150Z,40.60
2017-08-20T08:55:07.209Z,41.90
2017-08-20T08:57:36.070Z,41.10
2017-08-20T09:00:04.174Z,42.10
2017-08-20T09:02:32.345Z,39.70
2017-08-20T09:05:00.518Z,38.70
2017-08-20T09:07:28.694Z,38.10
2017-08-20T09:09:56.799Z,37.60
2017-08-20T09:12:24.871Z,37.20
2017-08-20T09:14:53.338Z,36.30
2017-08-20T09:17:21.438Z,36.10
2017-08-20T09:19:49.906Z,36.20
2017-08-20T09:22:18.792Z,36.70
2017-08-20T09:24:48.370Z,36.00
2017-08-20T09:27:16.442Z,37.60
2017-08-20T09:29:44.538Z,35.70
2017-08-20T09:32:12.606Z,36.20
2017-08-20T09:34:40.748Z,33.50
2017-08-20T09:37:09.542Z,33.40
2017-08-20T09:39:37.638Z,32.40
2017-08-20T09:42:05.734Z,33.80
2017-08-20T09:44:34.209Z,30.50
2017-08-20T09:47:02.298Z,31.80
2017-08-20T09:49:30.370Z,30.20
2017-08-20T09:51:58.474Z,30.60
2017-08-20T09:54:26.551Z,31.30
2017-08-20T09:56:54.634Z,30.60
2017-08-20T09:59:22.722Z,28.80
2017-08-20T10:01:50.802Z,28.90
2017-08-20T10:04:18.914Z,31.00
2017-08-20T10:06:47.386Z,31.40
2017-08-20T10:09:16.683Z,32.60
2017-08-20T10:11:45.571Z,28.60
2017-08-20T10:14:13.642Z,27.40
2017-08-20T10:16:41.738Z,28.40
2017-08-20T10:19:09.811Z,27.30
2017-08-20T10:21:37.906Z,28.30
2017-08-20T10:24:06.002Z,28.50
2017-08-20T10:26:34.078Z,27.40
2017-08-20T10:29:02.174Z,28.70
2017-08-20T10:31:31.015Z,28.70
2017-08-20T10:33:59.135Z,26.60
2017-08-20T10:36:27.603Z,26.30
2017-08-20T10:38:55.681Z,25.80
2017-08-20T10:41:23.772Z,25.20
2017-08-20T10:43:51.843Z,26.50
2017-08-20T10:46:19.946Z,25.70
2017-08-20T10:48:48.018Z,21.20
2017-08-20T10:51:16.095Z,23.20
2017-08-20T10:53:44.186Z,22.20
2017-08-20T10:56:12.290Z,22.40
2017-08-20T10:58:41.130Z,23.70
2017-08-20T11:01:09.202Z,24.30
2017-08-20T11:03:37.298Z,24.00
2017-08-20T11:06:05.394Z,24.90
2017-08-20T11:08:34.343Z,24.30
2017-08-20T11:11:02.411Z,24.10
2017-08-20T11:13:30.886Z,21.90
2017-08-20T11:15:58.963Z,20.40
2017-08-20T11:18:27.035Z,21.10
2017-08-20T11:20:55.130Z,18.00
2017-08-20T11:23:23.206Z,18.40
2017-08-20T11:25:51.318Z,17.30
2017-08-20T11:28:19.389Z,17.80
2017-08-20T11:30:47.480Z,14.70
2017-08-20T11:33:16.355Z,14.30
2017-08-20T11:35:44.463Z,14.60
2017-08-20T11:38:12.556Z,13.50
2017-08-20T11:40:40.630Z,15.00
2017-08-20T11:43:08.734Z,15.30
2017-08-20T11:45:37.586Z,15.80
2017-08-20T11:48:05.654Z,15.80
2017-08-20T11:50:33.759Z,15.70
2017-08-20T11:53:02.600Z,17.10
2017-08-20T11:55:30.674Z,17.00
2017-08-20T11:57:58.778Z,16.20
2017-08-20T12:00:26.882Z,16.10
2017-08-20T12:02:54.977Z,16.10
2017-08-20T12:05:23.064Z,16.30
2017-08-20T12:07:51.166Z,17.40
2017-08-20T12:10:19.239Z,19.00
2017-08-20T12:12:47.314Z,18.50
2017-08-20T12:15:15.426Z,19.80
2017-08-20T12:17:43.507Z,20.50
2017-08-20T12:20:11.570Z,20.80
2017-08-20T12:22:39.674Z,20.60
2017-08-20T12:25:07.758Z,18.00
2017-08-20T12:27:35.834Z,18.60
2017-08-20T12:30:03.950Z,16.40
2017-08-20T12:32:32.038Z,14.80
2017-08-20T12:35:01.362Z,16.00
2017-08-20T12:37:29.422Z,15.70
2017-08-20T12:39:57.494Z,15.60
2017-08-20T12:42:25.598Z,14.80
2017-08-20T12:44:53.669Z,14.90
2017-08-20T12:47:21.746Z,14.40
2017-08-20T12:49:49.842Z,14.30
2017-08-20T12:52:18.702Z,13.90
2017-08-20T12:54:46.798Z,12.60
2017-08-20T12:57:15.638Z,13.90
2017-08-20T12:59:43.739Z,13.80
2017-08-20T13:02:11.874Z,12.10
2017-08-20T13:04:39.964Z,12.20
2017-08-20T13:07:08.023Z,12.50
2017-08-20T13:09:36.135Z,12.50
2017-08-20T13:12:04.198Z,13.00
2017-08-20T13:14:32.322Z,13.90
2017-08-20T13:17:01.252Z,13.70
2017-08-20T13:19:29.314Z,14.20
2017-08-20T13:21:57.391Z,13.50
2017-08-20T13:24:25.502Z,14.20
2017-08-20T13:26:53.574Z,15.70
2017-08-20T13:29:21.646Z,16.10
2017-08-20T13:31:49.940Z,18.40
2017-08-20T13:34:18.046Z,19.40
2017-08-20T13:36:46.135Z,21.50
2017-08-20T13:39:14.638Z,22.20
2017-08-20T13:41:43.810Z,22.40
2017-08-20T13:44:13.047Z,21.40
2017-08-20T13:46:41.111Z,21.50
2017-08-20T13:49:09.209Z,20.40
2017-08-20T13:51:38.068Z,19.70
2017-08-20T13:54:06.138Z,17.80
2017-08-20T13:56:34.626Z,17.20
2017-08-20T13:59:02.726Z,16.50
2017-08-20T14:01:30.834Z,15.40
2017-08-20T14:03:58.913Z,15.90
2017-08-20T14:06:26.991Z,14.90
2017-08-20T14:08:55.086Z,14.50
2017-08-20T14:11:23.159Z,14.80
2017-08-20T14:13:51.254Z,14.40
2017-08-20T14:16:20.114Z,13.70
2017-08-20T14:18:48.214Z,13.80
2017-08-20T14:21:17.056Z,14.50
2017-08-20T14:23:45.153Z,13.10
2017-08-20T14:26:13.219Z,14.30
2017-08-20T14:28:41.328Z,15.70
2017-08-20T14:31:10.171Z,17.40
2017-08-20T14:33:38.246Z,18.20
2017-08-20T14:36:06.350Z,19.00
2017-08-20T14:38:35.191Z,20.90
2017-08-20T14:41:03.263Z,21.20
2017-08-20T14:43:31.358Z,21.20
2017-08-20T14:45:59.458Z,21.90
2017-08-20T14:48:28.351Z,22.90
2017-08-20T14:50:57.198Z,22.80
2017-08-20T14:53:25.674Z,22.70
2017-08-20T14:55:53.778Z,23.80
2017-08-20T14:58:21.854Z,23.20
2017-08-20T15:00:49.946Z,23.00
2017-08-20T15:03:18.413Z,23.00
2017-08-20T15:05:46.526Z,23.80
2017-08-20T15:08:14.616Z,23.30
2017-08-20T15:10:42.699Z,24.20
2017-08-20T15:13:10.798Z,24.70
2017-08-20T15:15:38.946Z,24.70
2017-08-20T15:18:07.519Z,24.70
2017-08-20T15:20:36.422Z,25.60
2017-08-20T15:23:04.593Z,25.50
2017-08-20T15:25:32.778Z,25.50
2017-08-20T15:28:00.956Z,26.70
2017-08-20T15:30:29.119Z,25.60
2017-08-20T15:32:57.298Z,25.40
2017-08-20T15:35:25.774Z,26.10
2017-08-20T15:37:53.950Z,26.60
2017-08-20T15:40:22.530Z,26.50
2017-08-20T15:42:50.706Z,27.30
2017-08-20T15:45:18.887Z,27.00
2017-08-20T15:47:47.054Z,27.10
2017-08-20T15:50:15.234Z,27.40
2017-08-20T15:52:43.417Z,27.70
2017-08-20T15:55:11.583Z,27.20
2017-08-20T15:57:39.770Z,27.70
2017-08-20T16:00:07.931Z,28.70
2017-08-20T16:02:36.824Z,28.20
2017-08-20T16:05:06.521Z,29.60
2017-08-20T16:07:34.691Z,28.10
2017-08-20T16:10:02.746Z,28.30
2017-08-20T16:12:30.818Z,28.60
2017-08-20T16:15:00.050Z,28.80
2017-08-20T16:17:28.914Z,29.20
2017-08-20T16:19:58.120Z,29.30
2017-08-20T16:22:26.195Z,29.60
2017-08-20T16:24:55.062Z,29.70
2017-08-20T16:27:23.138Z,29.50
2017-08-20T16:29:51.215Z,29.20
2017-08-20T16:32:20.442Z,30.70
2017-08-20T16:34:48.922Z,30.00
2017-08-20T16:37:17.026Z,29.80
2017-08-20T16:39:45.869Z,30.40
2017-08-20T16:42:13.941Z,29.80
2017-08-20T16:44:42.046Z,30.10
2017-08-20T16:47:11.649Z,30.70
2017-08-20T16:49:40.121Z,27.70
2017-08-20T16:52:08.226Z,28.70
2017-08-20T16:54:37.074Z,28.90
2017-08-20T16:57:05.542Z,27.50
2017-08-20T16:59:34.850Z,29.10
2017-08-20T17:02:03.646Z,29.10
2017-08-20T17:04:31.742Z,27.40
2017-08-20T17:06:59.814Z,26.90
2017-08-20T17:09:27.922Z,27.20
2017-08-20T17:11:55.993Z,27.50
2017-08-20T17:14:24.462Z,28.40
2017-08-20T17:16:52.957Z,28.50
2017-08-20T17:19:21.031Z,29.20
2017-08-20T17:21:49.851Z,29.90
2017-08-20T17:24:19.074Z,30.10
2017-08-20T17:26:48.764Z,31.00
2017-08-20T17:29:17.241Z,32.00
2017-08-20T17:31:45.278Z,32.50
2017-08-20T17:34:13.390Z,32.20
2017-08-20T17:36:41.486Z,32.00
2017-08-20T17:39:09.978Z,32.20
2017-08-20T17:41:38.050Z,32.20
2017-08-20T17:44:06.923Z,31.70
2017-08-20T17:46:34.998Z,32.00
2017-08-20T17:49:03.066Z,31.80
2017-08-20T17:51:32.058Z,32.60
2017-08-20T17:54:00.530Z,32.50
2017-08-20T17:56:28.626Z,33.30
2017-08-20T17:58:56.741Z,34.20
2017-08-20T18:01:24.817Z,33.70
2017-08-20T18:03:53.282Z,34.70
2017-08-20T18:06:21.771Z,35.60
2017-08-20T18:08:51.130Z,36.10
2017-08-20T18:11:19.203Z,36.50
2017-08-20T18:13:47.306Z,37.00
2017-08-20T18:16:16.158Z,37.50
2017-08-20T18:18:44.626Z,38.30
2017-08-20T18:21:12.743Z,38.00
2017-08-20T18:23:41.582Z,39.80
2017-08-20T18:26:09.662Z,39.80
2017-08-20T18:28:37.758Z,40.80
2017-08-20T18:31:05.832Z,41.10
2017-08-20T18:33:33.926Z,42.00
2017-08-20T18:36:02.773Z,42.70
2017-08-20T18:38:31.626Z,42.60
2017-08-20T18:40:59.722Z,42.30
2017-08-20T18:43:27.799Z,42.80
2017-08-20T18:45:56.298Z,42.60
2017-08-20T18:48:24.370Z,44.00
2017-08-20T18:50:52.446Z,45.10
2017-08-20T18:53:20.558Z,46.20
2017-08-20T18:55:48.634Z,46.70
2017-08-20T18:58:16.710Z,47.30
2017-08-20T19:00:45.203Z,47.80
2017-08-20T19:03:14.621Z,49.80
2017-08-20T19:05:42.810Z,48.90
2017-08-20T19:08:12.622Z,48.40
2017-08-20T19:10:41.618Z,49.00
2017-08-20T19:13:10.914Z,49.30
2017-08-20T19:15:38.987Z,49.90
2017-08-20T19:18:07.494Z,48.60
2017-08-20T19:20:35.574Z,50.50
2017-08-20T19:23:04.419Z,51.40
2017-08-20T19:25:34.721Z,50.40
2017-08-20T19:28:02.815Z,51.20
2017-08-20T19:30:30.906Z,52.00
2017-08-20T19:32:59.378Z,52.60
2017-08-20T19:35:27.498Z,52.70
2017-08-20T19:37:56.019Z,53.20
2017-08-20T19:40:24.814Z,52.90
2017-08-20T19:42:54.755Z,53.20
2017-08-20T19:45:22.830Z,52.80
2017-08-20T19:47:50.952Z,52.30
2017-08-20T19:50:19.030Z,52.00
2017-08-20T19:52:47.106Z,51.80
2017-08-20T19:55:16.337Z,53.40
2017-08-20T19:57:44.414Z,53.00
2017-08-20T20:00:12.513Z,53.30
2017-08-20T20:02:41.399Z,54.00
2017-08-20T20:05:10.245Z,54.30
2017-08-20T20:07:38.316Z,53.60
2017-08-20T20:10:06.806Z,54.40
2017-08-20T20:12:34.881Z,54.90
2017-08-20T20:15:03.063Z,55.20
2017-08-20T20:17:31.141Z,56.90
2017-08-20T20:19:59.302Z,56.80
2017-08-20T20:22:27.478Z,57.70
2017-08-20T20:24:55.740Z,57.20
2017-08-20T20:27:23.826Z,58.10
2017-08-20T20:29:51.998Z,58.30
2017-08-20T20:32:20.170Z,58.40
2017-08-20T20:34:48.334Z,57.80
2017-08-20T20:37:16.429Z,58.40
2017-08-20T20:39:44.603Z,57.30
2017-08-20T20:42:12.775Z,57.80
2017-08-20T20:44:40.862Z,58.60
2017-08-20T20:47:09.734Z,58.60
2017-08-20T20:49:37.966Z,58.60
2017-08-20T20:52:06.087Z,59.00
2017-08-20T20:54:34.258Z,59.70
2017-08-20T20:57:02.439Z,59.40
2017-08-20T20:59:30.611Z,59.50
2017-08-20T21:01:58.708Z,59.80
2017-08-20T21:04:27.575Z,59.20
2017-08-20T21:06:55.744Z,59.50
2017-08-20T21:09:25.450Z,60.30
2017-08-20T21:11:53.630Z,58.60
2017-08-20T21:14:21.738Z,59.70
2017-08-20T21:16:50.703Z,60.20
2017-08-20T21:19:18.868Z,59.90
2017-08-20T21:21:46.959Z,59.10
2017-08-20T21:24:15.802Z,60.00
2017-08-20T21:26:45.130Z,60.90
2017-08-20T21:29:13.310Z,60.80
2017-08-20T21:31:41.411Z,59.90
2017-08-20T21:34:10.268Z,59.90
2017-08-20T21:36:38.855Z,59.60
2017-08-20T21:39:07.434Z,60.30
2017-08-20T21:41:35.610Z,61.60
2017-08-20T21:44:03.786Z,59.40
2017-08-20T21:46:32.045Z,59.40
2017-08-20T21:49:00.115Z,61.50
2017-08-20T21:51:28.302Z,61.50
2017-08-20T21:53:56.478Z,60.80
2017-08-20T21:56:24.654Z,61.50
2017-08-20T21:58:53.234Z,61.70
2017-08-20T22:01:21.818Z,61.50
2017-08-20T22:03:49.994Z,62.40
2017-08-20T22:06:18.178Z,61.50
2017-08-20T22:08:46.432Z,61.60
2017-08-20T22:11:14.518Z,60.00
2017-08-20T22:13:42.695Z,61.80
2017-08-20T22:16:10.866Z,61.50
2017-08-20T22:18:38.956Z,63.00
2017-08-20T22:21:07.126Z,62.30
2017-08-20T22:23:35.630Z,61.80
2017-08-20T22:26:04.174Z,61.20
2017-08-20T22:28:32.286Z,60.80
2017-08-20T22:31:00.840Z,60.00
2017-08-20T22:33:29.014Z,58.70
2017-08-20T22:35:57.110Z,58.10
2017-08-20T22:38:25.610Z,58.60
2017-08-20T22:40:53.926Z,58.70
2017-08-20T22:43:22.830Z,58.30
2017-08-20T22:45:51.006Z,58.10
2017-08-20T22:48:19.082Z,57.50
2017-08-20T22:50:47.194Z,58.10
2017-08-20T22:53:15.735Z,56.90
2017-08-20T22:55:43.823Z,56.40
2017-08-20T22:58:11.983Z,56.80
2017-08-20T23:00:40.162Z,58.40
2017-08-20T23:03:08.342Z,59.30
2017-08-20T23:05:36.514Z,59.10
2017-08-20T23:08:04.679Z,59.20
2017-08-20T23:10:32.823Z,57.90
2017-08-20T23:13:00.923Z,58.30
2017-08-20T23:15:29.098Z,58.90
2017-08-20T23:17:57.274Z,58.30
2017-08-20T23:20:25.864Z,58.80
2017-08-20T23:22:54.026Z,59.30
2017-08-20T23:25:22.206Z,60.00
2017-08-20T23:27:50.378Z,59.60
2017-08-20T23:30:18.474Z,59.00
2017-08-20T23:32:47.124Z,59.50
2017-08-20T23:35:15.635Z,58.60
2017-08-20T23:37:44.202Z,60.70
2017-08-20T23:40:12.298Z,60.10
2017-08-20T23:42:40.854Z,59.30
2017-08-20T23:45:09.034Z,60.50
2017-08-20T23:47:37.141Z,60.30
2017-08-20T23:50:05.693Z,61.50
2017-08-20T23:52:33.862Z,62.10
2017-08-20T23:55:02.039Z,61.00
2017-08-20T23:57:30.207Z,61.40
2017-08-20T23:59:58.382Z,60.80
